Time;durP1;ratioP1;P1;durP2;ratioP2;P2;SDS_P1;SDS_P2;PMS_P1;PMS_P2;Temp;Humidity;BMP_temperature;BMP_pressure;BME280_temperature;BME280_humidity;BME280_pressure;Samples;Min_cycle;Max_cycle;Signal;HPM_P1;HPM_P2
2021/06/11 00:00:08;;;;;;;6.32;3.13;;;21.60;71.30;;;;;;5031886;28;20488;-76
2021/06/11 00:02:33;;;;;;;6.25;3.42;;;21.60;71.50;;;;;;5031259;28;20026;-77
2021/06/11 00:04:59;;;;;;;5.93;3.40;;;21.60;71.90;;;;;;5030470;28;20112;-77
2021/06/11 00:07:25;;;;;;;5.53;3.42;;;21.60;71.70;;;;;;5031535;28;20061;-77
2021/06/11 00:09:51;;;;;;;6.38;3.35;;;21.60;71.80;;;;;;5030885;28;20105;-76
2021/06/11 00:12:17;;;;;;;9.40;3.50;;;21.60;71.90;;;;;;5031662;28;20099;-75
2021/06/11 00:14:43;;;;;;;7.03;3.55;;;21.60;72.20;;;;;;5031229;28;20040;-77
2021/06/11 00:17:10;;;;;;;6.88;3.55;;;21.50;72.50;;;;;;5032957;28;20021;-76
2021/06/11 00:19:36;;;;;;;6.40;3.75;;;21.50;72.80;;;;;;5034932;28;20030;-77
2021/06/11 00:22:03;;;;;;;5.88;3.60;;;21.50;72.70;;;;;;5035662;28;20501;-77
2021/06/11 00:24:28;;;;;;;6.28;3.53;;;21.50;72.60;;;;;;5035687;28;20059;-75
2021/06/11 00:26:54;;;;;;;6.75;3.80;;;21.50;72.80;;;;;;5035022;28;20061;-76
2021/06/11 00:29:20;;;;;;;6.70;3.70;;;21.40;73.10;;;;;;5034352;28;20067;-76
2021/06/11 00:31:45;;;;;;;5.95;3.42;;;21.40;73.10;;;;;;5034926;28;20026;-76
2021/06/11 00:34:11;;;;;;;8.10;4.05;;;21.40;73.10;;;;;;5035292;28;20115;-76
2021/06/11 00:36:37;;;;;;;7.28;3.85;;;21.40;73.10;;;;;;5033726;28;20087;-76
2021/06/11 00:39:03;;;;;;;6.72;3.90;;;21.30;73.30;;;;;;5035634;28;20478;-76
2021/06/11 00:41:29;;;;;;;5.00;3.42;;;21.30;74.00;;;;;;5034128;28;20140;-76
2021/06/11 00:43:55;;;;;;;6.47;3.55;;;21.30;73.50;;;;;;5033472;28;20480;-76
2021/06/11 00:46:20;;;;;;;6.53;3.95;;;21.30;73.70;;;;;;5035524;28;20496;-77
2021/06/11 00:48:46;;;;;;;6.03;3.90;;;21.20;73.70;;;;;;5034419;28;20033;-76
2021/06/11 00:51:12;;;;;;;7.22;3.97;;;21.30;74.10;;;;;;5035260;28;20078;-76
2021/06/11 00:53:37;;;;;;;6.68;4.13;;;21.30;74.20;;;;;;5034475;28;20033;-75
2021/06/11 00:56:04;;;;;;;5.53;3.15;;;21.20;74.30;;;;;;5035104;28;20126;-77
2021/06/11 00:58:30;;;;;;;4.70;2.95;;;21.20;74.50;;;;;;5035300;28;20478;-77
2021/06/11 01:00:56;;;;;;;5.05;3.00;;;21.20;74.50;;;;;;5034402;28;20174;-76
2021/06/11 01:03:21;;;;;;;6.15;3.53;;;21.20;74.50;;;;;;5033839;28;20076;-77
2021/06/11 01:05:47;;;;;;;5.22;3.15;;;21.20;74.70;;;;;;5032763;28;20057;-76
2021/06/11 01:08:15;;;;;;;6.03;3.50;;;21.10;74.80;;;;;;5034993;28;20025;-76
2021/06/11 01:10:43;;;;;;;4.95;2.78;;;21.20;75.10;;;;;;5034144;28;20018;-76
2021/06/11 01:13:13;;;;;;;6.40;3.55;;;21.10;75.10;;;;;;5034736;28;20426;-77
2021/06/11 01:15:39;;;;;;;6.13;3.25;;;21.10;75.30;;;;;;5034434;28;20037;-77
2021/06/11 01:18:05;;;;;;;5.47;3.15;;;21.00;75.40;;;;;;5034723;28;20438;-76
2021/06/11 01:20:32;;;;;;;6.10;3.38;;;21.00;75.40;;;;;;5034718;28;20030;-76
2021/06/11 01:23:25;;;;;;;6.00;3.20;;;21.00;75.40;;;;;;5034009;28;20029;-77
2021/06/11 01:26:21;;;;;;;5.55;3.15;;;21.00;75.70;;;;;;5033975;28;20022;-76
2021/06/11 01:28:50;;;;;;;8.15;3.40;;;20.90;75.80;;;;;;5032438;28;20385;-77
2021/06/11 01:31:18;;;;;;;5.78;3.28;;;21.00;75.90;;;;;;5034595;28;20017;-76
2021/06/11 01:33:45;;;;;;;6.60;3.00;;;20.90;76.10;;;;;;5033729;28;20061;-74
2021/06/11 01:36:14;;;;;;;6.28;3.33;;;20.90;76.10;;;;;;5034848;28;20068;-77
2021/06/11 01:38:43;;;;;;;5.38;3.10;;;20.90;76.20;;;;;;5036942;28;20048;-77
2021/06/11 01:41:12;;;;;;;6.75;3.08;;;20.80;76.10;;;;;;5034601;28;20022;-76
2021/06/11 01:43:39;;;;;;;4.95;3.08;;;20.80;76.10;;;;;;5033258;28;20025;-77
2021/06/11 01:46:09;;;;;;;5.28;3.30;;;20.80;76.00;;;;;;5035150;28;20505;-76
2021/06/11 01:48:37;;;;;;;5.20;2.90;;;20.80;76.00;;;;;;5034270;28;20022;-76
2021/06/11 01:51:04;;;;;;;6.35;3.30;;;20.80;76.00;;;;;;5034088;28;20018;-76
2021/06/11 01:53:30;;;;;;;5.68;3.38;;;20.80;76.10;;;;;;5034039;28;20100;-76
2021/06/11 01:55:56;;;;;;;6.00;3.28;;;20.70;76.20;;;;;;5033771;28;20477;-77
2021/06/11 01:58:23;;;;;;;6.50;3.30;;;20.70;76.30;;;;;;5034041;28;20079;-76
2021/06/11 02:00:50;;;;;;;6.00;3.35;;;20.70;76.40;;;;;;5033021;28;20037;-76
2021/06/11 02:03:17;;;;;;;5.97;3.45;;;20.70;76.50;;;;;;5033835;28;20029;-76
2021/06/11 02:05:44;;;;;;;4.40;2.90;;;20.70;76.60;;;;;;5033219;28;20116;-76
2021/06/11 02:08:10;;;;;;;6.63;3.10;;;20.70;76.60;;;;;;5033768;28;20032;-76
2021/06/11 02:10:36;;;;;;;5.57;3.45;;;20.60;76.60;;;;;;5033679;28;20026;-76
2021/06/11 02:13:02;;;;;;;9.35;3.28;;;20.60;76.70;;;;;;5031783;28;20052;-77
2021/06/11 02:15:29;;;;;;;6.32;3.70;;;20.60;76.80;;;;;;5032338;28;20492;-76
2021/06/11 02:17:56;;;;;;;6.45;3.42;;;20.60;76.90;;;;;;5033036;28;20022;-76
2021/06/11 02:20:23;;;;;;;4.95;2.72;;;20.60;76.80;;;;;;5033840;28;20018;-76
2021/06/11 02:22:50;;;;;;;7.00;3.08;;;20.60;76.70;;;;;;5031622;28;20021;-77
2021/06/11 02:25:18;;;;;;;5.75;3.08;;;20.50;76.70;;;;;;5033495;28;20113;-76
2021/06/11 02:27:45;;;;;;;7.75;3.70;;;20.50;76.80;;;;;;5032525;28;20031;-77
2021/06/11 02:30:14;;;;;;;7.18;4.03;;;20.50;76.80;;;;;;5033472;28;20041;-77
2021/06/11 02:32:40;;;;;;;7.28;4.55;;;20.40;77.10;;;;;;5033263;28;20100;-77
2021/06/11 02:35:09;;;;;;;9.35;4.97;;;20.40;77.10;;;;;;5032830;28;20065;-76
2021/06/11 02:37:36;;;;;;;7.15;4.53;;;20.30;77.40;;;;;;5033266;28;20053;-76
2021/06/11 02:40:04;;;;;;;8.10;4.47;;;20.20;77.50;;;;;;5032265;28;20045;-77
2021/06/11 02:42:29;;;;;;;8.13;4.95;;;20.20;77.70;;;;;;5032886;28;20044;-76
2021/06/11 02:45:01;;;;;;;8.35;4.95;;;20.10;77.80;;;;;;5032189;28;20021;-76
2021/06/11 02:47:36;;;;;;;8.60;5.00;;;20.10;78.10;;;;;;5033186;28;20453;-75
2021/06/11 02:50:07;;;;;;;7.88;4.78;;;20.00;78.10;;;;;;5034164;28;20037;-75
2021/06/11 02:52:35;;;;;;;10.35;5.28;;;20.00;78.30;;;;;;5048990;28;20030;-76
2021/06/11 02:55:04;;;;;;;9.38;5.55;;;20.00;79.00;;;;;;5032101;28;20021;-76
2021/06/11 02:57:44;;;;;;;9.15;5.15;;;20.00;78.30;;;;;;5031787;28;20024;-75
2021/06/11 03:00:11;;;;;;;7.10;4.63;;;20.00;78.30;;;;;;5032944;28;20024;-75
2021/06/11 03:02:52;;;;;;;9.57;5.63;;;20.00;78.90;;;;;;5032525;28;20025;-76
2021/06/11 03:05:20;;;;;;;8.80;5.40;;;20.00;78.30;;;;;;5032797;28;20021;-75
2021/06/11 03:07:48;;;;;;;9.85;5.78;;;20.00;78.20;;;;;;5034024;28;20031;-76
2021/06/11 03:10:16;;;;;;;9.18;5.57;;;20.00;78.30;;;;;;5052204;28;20024;-75
2021/06/11 03:12:46;;;;;;;11.55;6.43;;;20.00;78.50;;;;;;5051145;28;20033;-75
2021/06/11 03:15:13;;;;;;;10.70;6.18;;;20.00;78.50;;;;;;5052448;28;20025;-76
2021/06/11 03:17:48;;;;;;;9.90;5.40;;;20.00;78.60;;;;;;5052494;28;20021;-76
2021/06/11 03:20:19;;;;;;;11.95;6.75;;;20.00;78.80;;;;;;5052608;28;20029;-75
2021/06/11 03:22:55;;;;;;;;;;;20.00;78.80;;;;;;5052270;28;20548;-77
2021/06/11 03:25:28;;;;;;;9.57;5.93;;;19.90;78.70;;;;;;5051095;28;20199;-75
2021/06/11 03:28:18;;;;;;;12.35;6.68;;;19.90;79.00;;;;;;5051712;28;20461;-75
2021/06/11 03:30:49;;;;;;;10.53;5.87;;;20.00;79.20;;;;;;5052375;28;20029;-75
2021/06/11 03:33:20;;;;;;;11.38;6.55;;;19.90;79.10;;;;;;5052183;28;20384;-75
2021/06/11 03:35:54;;;;;;;9.73;6.43;;;19.90;79.30;;;;;;5051762;28;20044;-77
2021/06/11 03:38:26;;;;;;;11.27;7.07;;;19.90;79.40;;;;;;5052630;28;20032;-76
2021/06/11 03:40:53;;;;;;;12.43;6.93;;;19.90;79.40;;;;;;5050132;28;20013;-77
2021/06/11 03:43:19;;;;;;;11.70;6.90;;;19.90;79.50;;;;;;5052070;28;20379;-76
2021/06/11 03:45:45;;;;;;;13.02;7.20;;;19.80;79.50;;;;;;5051938;28;20086;-76
2021/06/11 03:48:14;;;;;;;13.10;7.60;;;19.80;79.60;;;;;;5051085;28;20412;-76
2021/06/11 03:50:41;;;;;;;13.18;7.03;;;19.80;79.70;;;;;;5051122;28;20021;-75
2021/06/11 03:53:08;;;;;;;11.38;6.57;;;19.80;79.80;;;;;;5051187;28;20044;-77
2021/06/11 03:55:43;;;;;;;13.18;7.40;;;19.80;79.90;;;;;;5050531;28;20461;-76
2021/06/11 03:58:13;;;;;;;11.65;6.55;;;19.80;80.00;;;;;;5051353;28;20025;-77
2021/06/11 04:00:42;;;;;;;10.00;6.50;;;19.80;80.00;;;;;;5051888;28;20013;-76
2021/06/11 04:03:08;;;;;;;11.13;6.47;;;19.70;79.90;;;;;;5051257;28;20473;-77
2021/06/11 04:05:34;;;;;;;11.68;7.55;;;19.80;80.00;;;;;;5052026;28;20025;-77
2021/06/11 04:08:02;;;;;;;12.48;7.22;;;19.70;80.00;;;;;;5051053;28;20047;-76
2021/06/11 04:10:33;;;;;;;12.18;6.65;;;19.70;80.20;;;;;;5050491;28;20021;-76
2021/06/11 04:13:12;;;;;;;12.48;7.45;;;19.70;80.30;;;;;;5049926;28;20060;-77
2021/06/11 04:15:41;;;;;;;12.15;7.32;;;19.70;80.40;;;;;;5050688;28;20415;-77
2021/06/11 04:18:11;;;;;;;13.95;7.40;;;19.60;80.60;;;;;;5049817;28;20303;-77
2021/06/11 04:20:38;;;;;;;13.23;7.30;;;19.70;80.60;;;;;;5050389;28;20045;-76
2021/06/11 04:23:05;;;;;;;15.60;6.90;;;19.70;80.60;;;;;;5051287;28;20053;-77
2021/06/11 04:25:34;;;;;;;14.50;7.68;;;19.60;80.70;;;;;;5051632;28;20060;-77
2021/06/11 04:28:04;;;;;;;11.93;7.38;;;19.60;80.90;;;;;;5050989;28;20029;-77
2021/06/11 04:30:30;;;;;;;11.15;7.18;;;19.60;80.90;;;;;;5051609;28;20104;-76
2021/06/11 04:32:56;;;;;;;13.73;7.97;;;19.60;81.10;;;;;;5050898;28;20036;-76
2021/06/11 04:35:27;;;;;;;11.27;6.45;;;19.60;81.20;;;;;;5049806;28;20061;-77
2021/06/11 04:37:56;;;;;;;11.18;7.38;;;19.60;81.30;;;;;;5050908;28;20457;-76
2021/06/11 04:40:22;;;;;;;12.88;8.15;;;19.50;81.50;;;;;;5051757;28;20025;-77
2021/06/11 04:42:48;;;;;;;11.98;7.60;;;19.50;81.60;;;;;;5050029;28;20056;-76
2021/06/11 04:45:14;;;;;;;11.25;6.32;;;19.50;81.60;;;;;;5049222;28;20036;-77
2021/06/11 04:47:40;;;;;;;12.15;7.57;;;19.50;81.60;;;;;;5049782;28;20025;-77
2021/06/11 04:50:06;;;;;;;13.50;7.05;;;19.50;81.70;;;;;;5049552;28;20025;-77
2021/06/11 04:52:32;;;;;;;12.23;7.50;;;19.50;82.10;;;;;;5051274;28;20033;-77
2021/06/11 04:54:57;;;;;;;11.65;7.38;;;19.50;82.10;;;;;;5049555;28;20028;-78
2021/06/11 04:57:23;;;;;;;11.70;7.18;;;19.50;82.10;;;;;;5049980;28;20385;-76
2021/06/11 04:59:49;;;;;;;14.40;8.45;;;19.50;82.70;;;;;;5049988;28;20017;-76
2021/06/11 05:02:14;;;;;;;13.10;7.65;;;19.50;82.20;;;;;;5051458;28;20021;-76
2021/06/11 05:04:40;;;;;;;13.07;7.45;;;19.50;82.30;;;;;;5053519;28;20061;-78
2021/06/11 05:07:06;;;;;;;16.88;8.48;;;19.50;82.30;;;;;;5054070;28;20024;-76
2021/06/11 05:09:31;;;;;;;13.60;7.88;;;19.50;83.00;;;;;;5054855;28;20025;-77
2021/06/11 05:11:57;;;;;;;15.05;8.40;;;19.50;82.30;;;;;;5052692;28;20025;-78
2021/06/11 05:14:23;;;;;;;11.35;7.38;;;19.50;82.30;;;;;;5053375;28;20035;-76
2021/06/11 05:16:48;;;;;;;14.65;8.80;;;19.50;82.40;;;;;;5054686;28;20481;-76
2021/06/11 05:19:14;;;;;;;14.68;8.45;;;19.50;82.60;;;;;;5054094;28;20021;-77
2021/06/11 05:21:40;;;;;;;13.75;7.90;;;19.40;82.60;;;;;;5054803;28;20162;-77
2021/06/11 05:24:06;;;;;;;15.70;7.82;;;19.40;82.70;;;;;;5052715;28;20422;-77
2021/06/11 05:26:32;;;;;;;17.23;8.52;;;19.50;82.70;;;;;;5053347;28;20025;-76
2021/06/11 05:28:58;;;;;;;15.05;7.90;;;19.50;83.20;;;;;;5052649;28;20066;-77
2021/06/11 05:31:23;;;;;;;13.88;8.38;;;19.50;83.10;;;;;;5052976;28;20035;-77
2021/06/11 05:33:50;;;;;;;13.13;7.40;;;19.50;83.10;;;;;;5052806;28;20025;-77
2021/06/11 05:36:15;;;;;;;15.75;7.22;;;19.60;83.00;;;;;;5053823;28;20171;-76
2021/06/11 05:38:42;;;;;;;14.25;7.47;;;19.60;83.30;;;;;;5054211;28;20439;-77
2021/06/11 05:41:08;;;;;;;14.13;8.07;;;19.60;83.50;;;;;;5052208;28;20025;-77
2021/06/11 05:43:34;;;;;;;14.85;7.78;;;19.60;83.40;;;;;;5052764;28;20167;-79
2021/06/11 05:46:00;;;;;;;13.57;7.80;;;19.60;83.30;;;;;;5053543;28;20021;-77
2021/06/11 05:48:25;;;;;;;12.77;6.97;;;19.60;83.40;;;;;;5054102;28;20031;-77
2021/06/11 05:50:51;;;;;;;14.77;7.65;;;19.60;83.30;;;;;;5053904;28;20024;-75
2021/06/11 05:53:22;;;;;;;13.95;7.20;;;19.50;83.50;;;;;;5051959;28;20121;-76
2021/06/11 05:55:50;;;;;;;14.55;7.63;;;19.50;83.60;;;;;;5052787;28;20307;-78
2021/06/11 05:58:15;;;;;;;13.73;7.63;;;19.50;83.70;;;;;;5053180;28;20024;-76
2021/06/11 06:00:41;;;;;;;12.35;6.88;;;19.50;83.70;;;;;;5052662;28;20017;-77
2021/06/11 06:03:07;;;;;;;13.40;7.53;;;19.60;83.50;;;;;;5053269;28;20415;-76
2021/06/11 06:05:32;;;;;;;12.98;7.20;;;19.60;83.50;;;;;;5053730;28;20028;-77
2021/06/11 06:07:58;;;;;;;14.90;8.85;;;19.70;83.70;;;;;;5053115;28;20025;-78
2021/06/11 06:10:23;;;;;;;18.98;7.95;;;19.60;83.70;;;;;;5054002;28;20434;-76
2021/06/11 06:12:49;;;;;;;13.45;7.32;;;19.60;83.50;;;;;;5053746;28;20389;-77
2021/06/11 06:15:15;;;;;;;12.13;7.68;;;19.60;83.70;;;;;;5050927;28;20385;-76
2021/06/11 06:17:41;;;;;;;13.48;7.47;;;19.60;83.70;;;;;;5053406;28;20476;-77
2021/06/11 06:20:09;;;;;;;11.77;7.20;;;19.60;83.80;;;;;;5052754;28;20025;-77
2021/06/11 06:22:35;;;;;;;12.88;7.57;;;19.60;83.80;;;;;;5053017;28;20036;-75
2021/06/11 06:25:01;;;;;;;10.63;6.40;;;19.60;83.70;;;;;;5051325;28;20017;-77
2021/06/11 06:27:26;;;;;;;12.20;6.40;;;19.60;83.60;;;;;;5053172;28;20025;-76
2021/06/11 06:29:52;;;;;;;12.05;7.13;;;19.60;83.50;;;;;;5053298;28;20540;-77
2021/06/11 06:32:18;;;;;;;12.43;6.68;;;19.60;83.80;;;;;;5043395;28;20479;-75
2021/06/11 06:34:43;;;;;;;11.40;6.57;;;19.60;83.70;;;;;;5032687;28;20382;-77
2021/06/11 06:37:11;;;;;;;10.13;5.97;;;19.70;83.50;;;;;;5045437;28;20104;-77
2021/06/11 06:39:40;;;;;;;10.77;6.53;;;19.80;83.40;;;;;;5051958;28;20025;-77
2021/06/11 06:42:06;;;;;;;10.50;5.15;;;19.90;83.40;;;;;;5033728;28;20036;-77
2021/06/11 06:44:33;;;;;;;10.80;5.72;;;19.90;83.20;;;;;;5032595;28;20030;-76
2021/06/11 06:46:59;;;;;;;10.77;5.90;;;19.90;83.10;;;;;;5033073;28;20025;-76
2021/06/11 06:49:25;;;;;;;11.30;5.53;;;20.00;83.00;;;;;;5032326;28;20025;-76
2021/06/11 06:51:50;;;;;;;12.40;6.50;;;20.00;82.80;;;;;;5031550;28;20025;-75
2021/06/11 06:54:16;;;;;;;12.15;5.57;;;20.00;82.80;;;;;;5032004;28;20057;-76
2021/06/11 06:56:42;;;;;;;14.32;6.65;;;20.00;82.70;;;;;;5032802;28;20485;-75
2021/06/11 06:59:07;;;;;;;11.35;6.55;;;20.10;82.60;;;;;;5031018;28;20359;-77
2021/06/11 07:01:33;;;;;;;9.30;5.18;;;20.10;82.40;;;;;;5032753;28;20029;-77
2021/06/11 07:04:01;;;;;;;10.60;5.32;;;20.10;82.40;;;;;;5032624;28;20036;-76
2021/06/11 07:06:27;;;;;;;12.45;5.47;;;20.10;82.20;;;;;;5031390;28;20036;-77
2021/06/11 07:08:53;;;;;;;9.30;5.30;;;20.20;82.10;;;;;;5031130;28;20052;-77
2021/06/11 07:11:19;;;;;;;11.23;5.68;;;20.20;82.20;;;;;;5030632;28;20048;-75
2021/06/11 07:13:45;;;;;;;12.90;6.00;;;20.20;82.30;;;;;;5032058;28;20041;-77
2021/06/11 07:16:11;;;;;;;11.55;5.45;;;20.30;82.10;;;;;;5030379;28;20017;-76
2021/06/11 07:18:37;;;;;;;8.68;4.70;;;20.30;81.90;;;;;;5031236;28;20151;-76
2021/06/11 07:21:07;;;;;;;10.57;5.10;;;20.40;81.70;;;;;;5031752;28;20031;-76
2021/06/11 07:23:34;;;;;;;9.93;5.53;;;20.40;81.40;;;;;;5032088;28;20465;-77
2021/06/11 07:26:02;;;;;;;11.63;7.25;;;20.50;81.20;;;;;;5031331;28;20128;-77
2021/06/11 07:28:28;;;;;;;14.95;7.03;;;20.40;80.90;;;;;;5031994;28;20462;-76
2021/06/11 07:30:55;;;;;;;14.48;7.32;;;20.40;81.10;;;;;;5032199;28;20028;-76
2021/06/11 07:33:21;;;;;;;15.38;7.60;;;20.40;81.20;;;;;;5031525;28;20044;-77
2021/06/11 07:35:47;;;;;;;14.77;7.28;;;20.50;81.30;;;;;;5031705;28;20080;-77
2021/06/11 07:38:13;;;;;;;14.70;7.43;;;20.50;81.20;;;;;;5031222;28;20389;-77
2021/06/11 07:40:38;;;;;;;16.63;9.63;;;20.60;81.30;;;;;;5030709;28;20384;-76
2021/06/11 07:43:04;;;;;;;16.48;8.68;;;20.50;81.40;;;;;;5031463;28;20029;-78
2021/06/11 07:45:31;;;;;;;18.15;9.75;;;20.50;81.40;;;;;;5031974;28;20018;-76
2021/06/11 07:47:56;;;;;;;18.38;9.98;;;20.60;81.60;;;;;;5030864;28;20358;-77
2021/06/11 07:50:22;;;;;;;16.92;9.45;;;20.60;81.50;;;;;;5031104;28;20560;-76
2021/06/11 07:52:49;;;;;;;17.00;8.95;;;20.60;81.40;;;;;;5031889;28;20030;-77
2021/06/11 07:55:15;;;;;;;17.77;8.82;;;20.70;81.30;;;;;;5030036;28;20057;-78
2021/06/11 07:57:41;;;;;;;21.70;9.80;;;20.70;81.10;;;;;;5030644;28;20138;-77
2021/06/11 08:00:08;;;;;;;15.25;7.95;;;20.70;80.90;;;;;;5031206;28;20462;-76
2021/06/11 08:02:33;;;;;;;17.42;9.20;;;20.70;80.70;;;;;;5031693;28;20048;-77
2021/06/11 08:04:59;;;;;;;16.83;8.43;;;20.80;80.70;;;;;;5032712;28;20422;-77
2021/06/11 08:07:34;;;;;;;15.27;8.50;;;20.80;80.70;;;;;;5032286;28;20021;-78
2021/06/11 08:09:59;;;;;;;45.25;11.88;;;20.80;80.60;;;;;;5032889;28;20022;-76
2021/06/11 08:12:26;;;;;;;20.83;9.98;;;20.80;80.40;;;;;;5031329;28;20030;-78
2021/06/11 08:14:51;;;;;;;21.27;7.97;;;20.90;80.30;;;;;;5030586;28;20056;-77
2021/06/11 08:17:17;;;;;;;16.20;7.70;;;20.90;80.30;;;;;;5031187;28;20127;-76
2021/06/11 08:19:43;;;;;;;18.75;7.45;;;20.90;80.20;;;;;;5032090;28;20037;-77
2021/06/11 08:22:08;;;;;;;18.40;7.80;;;21.00;80.10;;;;;;5029816;28;20029;-78
2021/06/11 08:24:34;;;;;;;15.70;7.43;;;21.00;80.00;;;;;;5031432;28;20032;-77
2021/06/11 08:27:00;;;;;;;12.40;6.95;;;21.10;79.80;;;;;;5031530;28;20104;-76
2021/06/11 08:29:26;;;;;;;13.02;6.10;;;21.10;79.70;;;;;;5031027;28;20429;-77
2021/06/11 08:31:52;;;;;;;13.93;6.65;;;21.10;79.50;;;;;;5030170;28;20017;-76
2021/06/11 08:34:18;;;;;;;14.05;7.28;;;21.10;79.40;;;;;;5030753;28;20477;-78
2021/06/11 08:36:44;;;;;;;11.60;6.43;;;21.10;79.30;;;;;;5030210;28;20032;-77
2021/06/11 08:39:10;;;;;;;14.38;6.10;;;21.10;79.30;;;;;;5034635;28;20100;-78
2021/06/11 08:41:36;;;;;;;12.80;6.55;;;21.10;79.40;;;;;;5035548;28;20056;-77
2021/06/11 08:44:02;;;;;;;11.48;5.30;;;21.20;80.10;;;;;;5035236;28;20044;-78
2021/06/11 08:46:30;;;;;;;12.52;5.30;;;21.30;79.10;;;;;;5033308;28;20014;-77
2021/06/11 08:48:58;;;;;;;14.13;5.60;;;21.30;78.80;;;;;;5035318;28;20029;-77
2021/06/11 08:51:24;;;;;;;13.40;6.22;;;21.30;78.70;;;;;;5033355;28;20017;-75
2021/06/11 08:53:49;;;;;;;12.95;5.93;;;21.40;78.50;;;;;;5035043;28;20124;-77
2021/06/11 08:56:15;;;;;;;12.32;6.65;;;21.40;78.50;;;;;;5034209;28;20030;-76
2021/06/11 08:58:41;;;;;;;12.10;6.65;;;21.50;78.90;;;;;;5034636;28;20184;-77
2021/06/11 09:01:10;;;;;;;14.30;6.53;;;21.50;78.20;;;;;;5034737;28;20428;-76
2021/06/11 09:03:46;;;;;;;11.55;5.97;;;21.50;78.10;;;;;;5033580;28;20500;-76
2021/06/11 09:06:13;;;;;;;11.13;5.43;;;21.60;78.10;;;;;;5033146;28;20017;-78
2021/06/11 09:09:03;;;;;;;13.98;7.43;;;21.60;77.90;;;;;;5035138;28;20022;-76
2021/06/11 09:11:34;;;;;;;12.30;6.70;;;21.70;77.80;;;;;;5032975;28;20029;-76
2021/06/11 09:14:08;;;;;;;12.93;6.10;;;21.70;77.70;;;;;;5034719;28;20783;-77
2021/06/11 09:16:51;;;;;;;11.77;6.15;;;21.80;77.90;;;;;;5032832;28;20033;-76
2021/06/11 09:19:20;;;;;;;15.75;7.78;;;21.90;77.90;;;;;;5032773;28;20113;-77
2021/06/11 09:21:53;;;;;;;16.05;7.72;;;21.90;77.40;;;;;;5033320;28;20025;-77
2021/06/11 09:24:24;;;;;;;15.23;7.93;;;22.00;77.30;;;;;;5032728;28;20055;-75
2021/06/11 09:27:02;;;;;;;12.55;6.75;;;22.00;77.20;;;;;;5034552;28;20022;-77
2021/06/11 09:29:30;;;;;;;10.02;5.28;;;22.10;77.10;;;;;;5032753;28;20036;-77
2021/06/11 09:32:22;;;;;;;15.20;7.07;;;22.10;76.80;;;;;;5033037;28;20487;-76
2021/06/11 09:34:52;;;;;;;15.65;7.43;;;22.20;76.60;;;;;;5034040;28;20045;-78
2021/06/11 09:37:20;;;;;;;14.00;7.10;;;22.20;76.50;;;;;;5034467;28;20036;-78
2021/06/11 09:39:56;;;;;;;14.80;7.93;;;22.30;76.60;;;;;;5033534;28;20798;-77
2021/06/11 09:42:24;;;;;;;11.05;6.13;;;22.30;76.30;;;;;;5032340;28;20055;-76
2021/06/11 09:45:01;;;;;;;11.55;6.03;;;22.40;76.10;;;;;;5032804;28;20087;-76
2021/06/11 09:47:35;;;;;;;12.60;6.63;;;22.50;75.90;;;;;;5033680;28;20021;-77
2021/06/11 09:50:09;;;;;;;13.18;6.88;;;22.60;75.10;;;;;;5033099;28;20465;-76
2021/06/11 09:53:11;;;;;;;12.07;6.40;;;22.70;75.00;;;;;;5033522;28;20037;-78
2021/06/11 09:55:43;;;;;;;14.00;7.20;;;22.80;74.60;;;;;;5033565;28;20029;-76
2021/06/11 09:58:22;;;;;;;11.82;6.47;;;22.90;74.40;;;;;;5033571;28;20389;-76
2021/06/11 10:00:57;;;;;;;12.40;5.20;;;22.90;74.60;;;;;;5033848;28;20388;-76
2021/06/11 10:03:31;;;;;;;10.35;5.32;;;22.90;74.50;;;;;;5033309;28;20068;-76
2021/06/11 10:05:58;;;;;;;10.18;5.63;;;23.00;73.70;;;;;;5033552;28;20018;-77
2021/06/11 10:08:25;;;;;;;14.23;7.18;;;23.00;73.70;;;;;;5033227;28;20021;-78
2021/06/11 10:10:59;;;;;;;13.10;7.05;;;23.00;73.70;;;;;;5032294;28;20029;-78
2021/06/11 10:13:26;;;;;;;16.45;7.65;;;23.10;73.70;;;;;;5033100;28;20038;-77
2021/06/11 10:15:57;;;;;;;17.13;7.50;;;23.10;73.70;;;;;;5033659;28;20462;-77
2021/06/11 10:18:23;;;;;;;14.90;7.63;;;23.00;73.10;;;;;;5031972;28;20092;-76
2021/06/11 10:20:50;;;;;;;12.23;6.43;;;23.10;73.20;;;;;;5033481;28;20454;-78
2021/06/11 10:23:21;;;;;;;14.48;7.53;;;23.10;73.00;;;;;;5032886;28;20363;-78
2021/06/11 10:25:51;;;;;;;12.50;6.90;;;23.20;72.80;;;;;;5033450;28;20059;-76
2021/06/11 10:28:29;;;;;;;12.80;6.72;;;23.20;72.80;;;;;;5033114;28;20025;-78
2021/06/11 10:30:55;;;;;;;15.77;7.88;;;23.20;72.90;;;;;;5032153;28;20472;-79
2021/06/11 10:33:43;;;;;;;13.57;7.18;;;23.20;72.80;;;;;;5032699;28;20040;-76
2021/06/11 10:36:39;;;;;;;14.90;7.28;;;23.30;73.00;;;;;;5033248;28;20531;-77
2021/06/11 10:39:12;;;;;;;13.00;6.40;;;23.40;72.10;;;;;;5032528;28;20037;-77
2021/06/11 10:41:59;;;;;;;16.00;8.45;;;23.50;71.90;;;;;;5031132;28;20468;-77
2021/06/11 10:44:46;;;;;;;14.77;7.97;;;23.60;71.80;;;;;;5032567;28;20480;-76
2021/06/11 10:47:18;;;;;;;13.18;7.18;;;23.60;71.30;;;;;;5033022;28;20024;-77
2021/06/11 10:49:59;;;;;;;12.13;6.53;;;23.70;71.20;;;;;;5031768;28;20025;-77
2021/06/11 10:52:47;;;;;;;11.88;6.85;;;23.70;70.50;;;;;;5030975;28;20036;-77
2021/06/11 10:55:19;;;;;;;15.43;6.57;;;23.70;70.20;;;;;;5032956;28;20116;-77
2021/06/11 10:57:53;;;;;;;11.02;6.43;;;23.80;70.40;;;;;;5032851;28;20026;-77
2021/06/11 11:00:28;;;;;;;12.35;6.20;;;23.80;70.30;;;;;;5031863;28;20425;-78
2021/06/11 11:02:57;;;;;;;10.63;6.15;;;24.00;70.20;;;;;;5032817;28;20033;-76
2021/06/11 11:05:52;;;;;;;9.73;5.10;;;24.10;69.60;;;;;;5032232;28;20445;-78
2021/06/11 11:08:17;;;;;;;13.27;6.63;;;24.30;69.40;;;;;;5032036;28;20037;-76
2021/06/11 11:10:48;;;;;;;13.60;7.32;;;24.40;68.70;;;;;;5030738;28;20033;-77
2021/06/11 11:13:18;;;;;;;;;;;24.50;68.60;;;;;;5032756;28;20345;-77
2021/06/11 11:15:51;;;;;;;11.30;5.72;;;24.60;68.30;;;;;;5032395;28;19912;-77
2021/06/11 11:18:32;;;;;;;10.00;5.93;;;24.70;67.70;;;;;;5032523;28;20381;-78
2021/06/11 11:20:59;;;;;;;9.30;4.75;;;24.90;67.20;;;;;;5032101;28;20033;-75
2021/06/11 11:23:27;;;;;;;7.50;4.88;;;25.00;67.00;;;;;;5030365;28;20029;-76
2021/06/11 11:25:53;;;;;;;12.23;6.13;;;25.10;66.50;;;;;;5032325;28;20022;-77
2021/06/11 11:28:20;;;;;;;9.80;5.88;;;25.30;65.80;;;;;;5031032;28;20105;-76
2021/06/11 11:30:47;;;;;;;10.80;5.53;;;25.40;65.40;;;;;;5031454;28;20033;-76
2021/06/11 11:33:14;;;;;;;13.65;6.68;;;25.40;64.70;;;;;;5030850;28;20034;-77
2021/06/11 11:35:42;;;;;;;11.13;6.18;;;25.40;64.40;;;;;;5031251;28;20041;-75
2021/06/11 11:38:10;;;;;;;10.82;5.80;;;25.60;64.30;;;;;;5032316;28;20052;-78
2021/06/11 11:40:37;;;;;;;10.98;5.68;;;25.70;64.10;;;;;;5030189;28;20430;-77
2021/06/11 11:43:03;;;;;;;9.35;4.45;;;25.90;63.70;;;;;;5032033;28;20029;-77
2021/06/11 11:45:31;;;;;;;8.73;5.05;;;26.10;63.80;;;;;;5031562;28;20021;-77
2021/06/11 11:48:00;;;;;;;10.82;4.78;;;26.40;62.90;;;;;;5031859;28;20091;-76
2021/06/11 11:50:31;;;;;;;8.73;4.60;;;26.60;62.40;;;;;;5029993;28;20359;-77
2021/06/11 11:52:56;;;;;;;9.00;4.55;;;26.80;61.20;;;;;;5032063;28;20112;-76
2021/06/11 11:55:23;;;;;;;8.15;4.53;;;26.90;60.20;;;;;;5032212;28;20076;-76
2021/06/11 11:57:49;;;;;;;10.65;5.00;;;27.00;60.10;;;;;;5030543;28;20530;-77
2021/06/11 12:00:16;;;;;;;9.65;5.07;;;27.10;59.30;;;;;;5031746;28;20025;-78
2021/06/11 12:02:43;;;;;;;9.23;4.25;;;27.00;59.50;;;;;;5029809;28;20029;-76
2021/06/11 12:05:10;;;;;;;7.78;4.22;;;27.00;59.00;;;;;;5032107;28;20104;-78
2021/06/11 12:07:36;;;;;;;8.25;4.28;;;27.00;58.80;;;;;;5031004;28;20120;-78
2021/06/11 12:10:03;;;;;;;8.13;4.40;;;27.10;58.40;;;;;;5032050;28;20052;-77
2021/06/11 12:12:29;;;;;;;7.57;3.95;;;27.30;58.50;;;;;;5032065;28;20367;-77
2021/06/11 12:14:55;;;;;;;8.52;4.18;;;27.50;58.10;;;;;;5036241;28;20086;-78
2021/06/11 12:17:21;;;;;;;7.07;3.90;;;27.60;58.30;;;;;;5035909;28;20021;-77
2021/06/11 12:19:47;;;;;;;7.35;4.07;;;27.80;57.50;;;;;;5034900;28;20032;-77
2021/06/11 12:22:14;;;;;;;7.82;4.50;;;27.80;56.90;;;;;;5034014;28;20022;-79
2021/06/11 12:24:41;;;;;;;7.45;3.80;;;27.90;56.30;;;;;;5035062;28;20112;-76
2021/06/11 12:27:07;;;;;;;6.85;3.20;;;28.00;56.20;;;;;;5034301;28;20025;-77
2021/06/11 12:29:33;;;;;;;7.13;4.32;;;28.00;56.20;;;;;;5033539;28;20072;-77
2021/06/11 12:31:59;;;;;;;8.50;4.57;;;28.00;55.70;;;;;;5034310;28;20021;-77
2021/06/11 12:34:24;;;;;;;8.50;4.57;;;28.10;55.60;;;;;;5033966;28;20140;-76
2021/06/11 12:36:50;;;;;;;8.98;4.50;;;28.10;55.70;;;;;;5035127;28;20450;-77
2021/06/11 12:39:16;;;;;;;8.45;4.68;;;28.10;55.50;;;;;;5035416;28;20026;-75
2021/06/11 12:41:42;;;;;;;11.20;5.22;;;28.10;55.70;;;;;;5033554;28;20065;-77
2021/06/11 12:44:15;;;;;;;8.57;4.20;;;28.20;55.30;;;;;;5035673;28;20030;-77
2021/06/11 12:46:46;;;;;;;10.00;4.63;;;28.20;54.90;;;;;;5033479;28;20083;-76